createdAt,value
2023-05-19T00:01:17.576Z,101101.59
2023-05-19T00:04:21.345Z,101096.63
2023-05-19T00:07:23.772Z,101087.88
2023-05-19T00:10:31.652Z,101081.31
2023-05-19T00:13:34.625Z,101080.84
2023-05-19T00:16:38.113Z,101069.09
2023-05-19T00:19:40.569Z,101067.47
2023-05-19T00:22:45.034Z,101075.47
2023-05-19T00:25:47.479Z,101072.03
2023-05-19T00:28:50.355Z,101067.94
2023-05-19T00:31:52.808Z,101070.47
2023-05-19T00:34:55.207Z,101072.63
2023-05-19T00:37:57.619Z,101068.19
2023-05-19T00:41:00.645Z,101066.19
2023-05-19T00:44:03.027Z,101050.25
2023-05-19T00:47:05.445Z,101051.00
2023-05-19T00:50:08.061Z,101055.19
2023-05-19T00:53:10.379Z,101051.06
2023-05-19T00:56:12.749Z,101048.56
2023-05-19T00:59:15.183Z,101048.00
2023-05-19T01:02:18.158Z,101043.22
2023-05-19T01:05:20.536Z,101046.56
2023-05-19T01:08:22.973Z,101047.06
2023-05-19T01:11:25.339Z,101057.06
2023-05-19T01:14:29.450Z,101053.34
2023-05-19T01:17:46.001Z,101049.25
2023-05-19T01:20:52.635Z,101045.59
2023-05-19T01:24:23.021Z,101045.59
2023-05-19T01:27:54.130Z,101042.97
2023-05-19T01:30:57.084Z,101043.63
2023-05-19T01:33:59.495Z,101044.34
2023-05-19T01:37:01.958Z,101042.41
2023-05-19T01:40:04.895Z,101046.84
2023-05-19T01:43:08.528Z,101045.97
2023-05-19T01:46:11.087Z,101044.59
2023-05-19T01:49:13.587Z,101042.00
2023-05-19T01:52:15.955Z,101042.81
2023-05-19T01:55:18.319Z,101042.53
2023-05-19T01:58:20.886Z,101039.00
2023-05-19T02:01:29.600Z,101049.13
2023-05-19T02:04:51.677Z,101037.28
2023-05-19T02:08:11.783Z,101040.06
2023-05-19T02:11:26.368Z,101044.16
2023-05-19T02:14:52.917Z,101040.81
2023-05-19T02:17:56.021Z,101041.78
2023-05-19T02:20:58.345Z,101046.72
2023-05-19T02:24:00.939Z,101047.97
2023-05-19T02:27:03.427Z,101055.38
2023-05-19T02:30:06.544Z,101052.22
2023-05-19T02:33:08.969Z,101050.56
2023-05-19T02:36:11.403Z,101041.31
2023-05-19T02:39:13.864Z,101038.28
2023-05-19T02:42:18.310Z,101039.69
2023-05-19T02:45:20.711Z,101041.00
2023-05-19T02:48:23.105Z,101043.22
2023-05-19T02:51:25.455Z,101045.72
2023-05-19T02:54:27.845Z,101038.88
2023-05-19T02:57:31.865Z,101043.78
2023-05-19T03:00:34.509Z,101054.19
2023-05-19T03:03:37.151Z,101053.59
2023-05-19T03:06:40.071Z,101055.63
2023-05-19T03:09:42.458Z,101064.75
2023-05-19T03:12:44.844Z,101062.19
2023-05-19T03:15:47.605Z,101068.84
2023-05-19T03:18:50.057Z,101065.69
2023-05-19T03:21:52.732Z,101071.34
2023-05-19T03:24:55.395Z,101071.94
2023-05-19T03:27:57.893Z,101078.34
2023-05-19T03:31:00.467Z,101078.72
2023-05-19T03:34:08.515Z,101081.13
2023-05-19T03:37:11.092Z,101063.56
2023-05-19T03:40:15.734Z,101088.63
2023-05-19T03:43:19.849Z,101086.34
2023-05-19T03:46:28.462Z,101088.28
2023-05-19T03:49:49.399Z,101096.09
2023-05-19T03:53:10.432Z,101087.06
2023-05-19T03:56:18.244Z,101090.38
2023-05-19T03:59:20.719Z,101094.22
2023-05-19T04:02:23.118Z,101099.41
2023-05-19T04:05:25.569Z,101093.34
2023-05-19T04:08:29.385Z,101095.84
2023-05-19T04:11:31.953Z,101104.81
2023-05-19T04:14:34.332Z,101097.84
2023-05-19T04:17:36.850Z,101098.63
2023-05-19T04:20:39.186Z,101097.75
2023-05-19T04:23:41.711Z,101098.56
2023-05-19T04:26:46.253Z,101095.69
2023-05-19T04:29:50.553Z,101103.75
2023-05-19T04:32:53.017Z,101102.81
2023-05-19T04:35:55.901Z,101108.44
2023-05-19T04:39:02.393Z,101117.59
2023-05-19T04:42:05.762Z,101123.38
2023-05-19T04:45:14.040Z,101117.22
2023-05-19T04:48:19.255Z,101119.25
2023-05-19T04:52:31.825Z,101121.59
2023-05-19T04:55:34.819Z,101124.09
2023-05-19T04:58:39.709Z,101091.44
2023-05-19T05:01:44.180Z,101123.22
2023-05-19T05:04:49.153Z,101136.38
2023-05-19T05:07:54.194Z,101136.56
2023-05-19T05:10:58.839Z,101131.34
2023-05-19T05:14:02.063Z,101141.97
2023-05-19T05:17:06.259Z,101154.59
2023-05-19T05:20:09.543Z,101148.56
2023-05-19T05:23:15.281Z,101155.00
2023-05-19T05:26:20.011Z,101149.22
2023-05-19T05:29:24.969Z,101153.41
2023-05-19T05:32:28.251Z,101149.59
2023-05-19T05:35:31.160Z,101145.66
2023-05-19T05:38:33.926Z,101148.19
2023-05-19T05:41:36.503Z,101139.34
2023-05-19T05:44:45.300Z,101147.19
2023-05-19T05:47:48.022Z,101155.44
2023-05-19T05:50:51.002Z,101147.63
2023-05-19T05:53:57.390Z,101154.50
2023-05-19T05:57:07.464Z,101152.38
2023-05-19T06:00:15.509Z,101164.69
2023-05-19T06:03:18.048Z,101163.22
2023-05-19T06:06:21.388Z,101161.69
2023-05-19T06:09:23.811Z,101160.13
2023-05-19T06:12:27.385Z,101157.31
2023-05-19T06:15:30.404Z,101160.81
2023-05-19T06:18:40.647Z,101161.88
2023-05-19T06:21:43.324Z,101160.78
2023-05-19T06:24:45.921Z,101132.44
2023-05-19T06:27:48.464Z,101152.25
2023-05-19T06:30:51.844Z,101150.03
2023-05-19T06:34:17.726Z,101154.16
2023-05-19T06:37:23.130Z,101158.03
2023-05-19T06:40:25.942Z,101150.25
2023-05-19T06:43:30.320Z,101159.31
2023-05-19T06:46:37.786Z,101149.69
2023-05-19T06:49:40.795Z,101160.53
2023-05-19T06:52:44.412Z,101171.41
2023-05-19T06:55:58.736Z,101175.44
2023-05-19T06:59:04.149Z,101176.63
2023-05-19T07:02:10.953Z,101174.06
2023-05-19T07:05:13.482Z,101168.81
2023-05-19T07:08:16.005Z,101166.84
2023-05-19T07:11:18.916Z,101163.81
2023-05-19T07:14:23.421Z,101161.97
2023-05-19T07:17:26.025Z,101159.56
2023-05-19T07:20:28.607Z,101157.78
2023-05-19T07:23:32.513Z,101161.97
2023-05-19T07:26:34.949Z,101152.16
2023-05-19T07:29:37.415Z,101159.81
2023-05-19T07:32:39.798Z,101151.97
2023-05-19T07:35:42.235Z,101146.56
2023-05-19T07:38:48.519Z,101141.50
2023-05-19T07:41:54.375Z,101135.38
2023-05-19T07:44:56.778Z,101136.38
2023-05-19T07:47:59.356Z,101143.19
2023-05-19T07:51:02.404Z,101151.47
2023-05-19T07:54:04.797Z,101158.94
2023-05-19T07:57:07.167Z,101157.16
2023-05-19T08:00:09.991Z,101164.41
2023-05-19T08:03:17.903Z,101165.66
2023-05-19T08:06:21.336Z,101166.66
2023-05-19T08:09:23.690Z,101168.09
2023-05-19T08:12:26.109Z,101163.25
2023-05-19T08:15:28.612Z,101162.22
2023-05-19T08:18:31.238Z,101157.56
2023-05-19T08:21:34.733Z,101154.31
2023-05-19T08:24:37.294Z,101157.69
2023-05-19T08:27:39.642Z,101157.34
2023-05-19T08:30:41.993Z,101146.00
2023-05-19T08:33:44.643Z,101153.00
2023-05-19T09:30:53.553Z,101131.44
2023-05-19T09:33:55.930Z,101132.22
2023-05-19T09:37:00.036Z,101125.34
2023-05-19T09:40:02.463Z,101119.06
2023-05-19T09:43:05.669Z,101110.94
2023-05-19T09:46:10.582Z,101117.63
2023-05-19T09:49:14.514Z,101110.59
2023-05-19T09:52:16.891Z,101106.09
2023-05-19T09:55:23.249Z,101101.13
2023-05-19T09:58:26.582Z,101100.78
2023-05-19T10:01:29.288Z,101101.34
2023-05-19T10:04:32.005Z,101105.91
2023-05-19T10:07:34.513Z,101106.75
2023-05-19T10:10:38.165Z,101109.59
2023-05-19T10:13:40.663Z,101093.00
2023-05-19T10:16:43.666Z,101093.00
2023-05-19T10:19:46.192Z,101074.31
2023-05-19T10:22:48.854Z,101082.91
2023-05-19T10:25:52.165Z,101057.78
2023-05-19T10:28:54.530Z,101067.22
2023-05-19T10:31:59.369Z,101066.44
2023-05-19T10:35:13.934Z,101065.38
2023-05-19T10:38:43.131Z,101066.16
2023-05-19T10:42:09.864Z,101060.34
2023-05-19T10:45:20.312Z,101072.34
2023-05-19T10:48:23.332Z,101067.19
2023-05-19T10:51:32.391Z,101066.19
2023-05-19T10:54:47.199Z,101075.38
2023-05-19T10:57:58.396Z,101076.88
2023-05-19T11:01:01.449Z,101076.84
2023-05-19T11:04:14.102Z,101068.25
2023-05-19T11:07:24.649Z,101075.50
2023-05-19T11:10:27.037Z,101070.22
2023-05-19T11:13:29.394Z,101064.13
2023-05-19T11:16:32.447Z,101063.06
2023-05-19T11:19:35.438Z,101060.72
2023-05-19T11:22:38.972Z,101061.81
2023-05-19T11:25:48.789Z,101068.03
2023-05-19T11:28:51.270Z,101063.94
2023-05-19T11:31:53.706Z,101061.38
2023-05-19T11:34:56.734Z,101051.50
2023-05-19T11:37:59.243Z,101044.81
2023-05-19T11:41:01.917Z,101045.38
2023-05-19T11:44:04.395Z,101042.53
2023-05-19T11:47:07.095Z,101035.38
2023-05-19T11:50:11.376Z,101049.94
2023-05-19T11:53:13.865Z,101042.31
2023-05-19T11:56:16.481Z,101043.34
2023-05-19T11:59:18.885Z,101037.28
2023-05-19T12:02:22.688Z,101039.47
2023-05-19T12:05:25.758Z,101041.50
2023-05-19T12:08:29.524Z,101025.09
2023-05-19T12:11:31.991Z,101026.00
2023-05-19T12:14:34.652Z,101021.81
2023-05-19T12:17:37.146Z,101020.22
2023-05-19T12:20:39.588Z,101009.44
2023-05-19T12:23:42.449Z,101000.06
2023-05-19T12:26:44.842Z,100999.97
2023-05-19T12:29:52.360Z,100994.44
2023-05-19T12:32:56.688Z,100993.63
2023-05-19T12:35:59.119Z,100994.22
2023-05-19T12:39:01.949Z,100993.91
2023-05-19T12:42:04.873Z,100996.25
2023-05-19T12:45:07.930Z,100990.34
2023-05-19T12:48:16.038Z,100988.31
2023-05-19T12:51:19.488Z,100990.13
2023-05-19T12:54:22.365Z,100989.81
2023-05-19T12:57:26.223Z,100990.94
2023-05-19T13:00:31.242Z,100986.34
2023-05-19T13:03:34.324Z,100987.41
2023-05-19T13:06:36.920Z,100987.16
2023-05-19T13:09:39.352Z,100981.88
2023-05-19T13:12:41.729Z,100984.66
2023-05-19T13:15:44.968Z,100981.56
2023-05-19T13:18:47.469Z,100980.97
2023-05-19T13:21:51.252Z,100980.66
2023-05-19T13:24:53.633Z,100979.22
2023-05-19T13:27:59.480Z,100974.03
2023-05-19T13:31:01.946Z,100966.72
2023-05-19T13:34:04.414Z,100965.88
2023-05-19T13:37:10.050Z,100963.00
2023-05-19T13:40:13.417Z,100961.25
2023-05-19T13:43:15.813Z,100951.13
2023-05-19T13:46:19.263Z,100950.78
2023-05-19T13:49:24.900Z,100957.31
2023-05-19T13:52:29.042Z,100944.88
2023-05-19T13:55:33.129Z,100944.56
2023-05-19T13:58:35.535Z,100935.56
2023-05-19T14:01:38.052Z,100946.28
2023-05-19T14:04:40.627Z,100937.13
2023-05-19T14:07:43.093Z,100938.75
2023-05-19T14:10:48.616Z,100935.22
2023-05-19T14:13:52.720Z,100932.06
2023-05-19T14:16:56.156Z,100940.13
2023-05-19T14:19:58.556Z,100922.72
2023-05-19T14:23:00.910Z,100933.34
2023-05-19T14:26:03.305Z,100929.44
2023-05-19T14:29:06.113Z,100926.63
2023-05-19T14:32:08.580Z,100932.19
2023-05-19T14:35:11.194Z,100919.31
2023-05-19T14:38:13.675Z,100890.00
2023-05-19T14:41:16.069Z,100916.97
2023-05-19T14:44:18.805Z,100924.34
2023-05-19T14:47:21.518Z,100918.22
2023-05-19T14:50:24.026Z,100917.47
2023-05-19T14:53:26.490Z,100917.81
2023-05-19T14:56:28.955Z,100919.94
2023-05-19T14:59:31.469Z,100915.72
2023-05-19T15:02:33.918Z,100914.28
2023-05-19T15:05:40.337Z,100925.69
2023-05-19T15:08:42.774Z,100911.16
2023-05-19T15:11:45.153Z,100921.81
2023-05-19T15:14:47.571Z,100925.25
2023-05-19T15:17:50.074Z,100923.56
2023-05-19T15:20:52.453Z,100922.72
2023-05-19T15:23:54.851Z,100920.88
2023-05-19T15:26:57.268Z,100914.25
2023-05-19T15:29:59.708Z,100915.56
2023-05-19T15:33:02.115Z,100910.13
2023-05-19T15:36:04.732Z,100905.84
2023-05-19T15:39:07.142Z,100919.38
2023-05-19T15:42:09.547Z,100909.88
2023-05-19T15:45:12.007Z,100907.69
2023-05-19T15:48:14.362Z,100899.91
2023-05-19T15:51:16.721Z,100896.75
2023-05-19T15:54:19.070Z,100898.81
2023-05-19T15:57:21.430Z,100896.59
2023-05-19T16:00:23.944Z,100894.34
2023-05-19T16:03:26.463Z,100884.53
2023-05-19T16:06:29.034Z,100886.50
2023-05-19T16:09:31.434Z,100889.63
2023-05-19T16:12:33.923Z,100887.50
2023-05-19T16:15:36.634Z,100891.06
2023-05-19T16:18:39.022Z,100888.31
2023-05-19T16:21:41.427Z,100889.06
2023-05-19T16:24:43.890Z,100887.94
2023-05-19T16:27:46.280Z,100893.91
2023-05-19T16:30:48.686Z,100895.63
2023-05-19T16:33:51.098Z,100889.84
2023-05-19T16:36:53.491Z,100885.78
2023-05-19T16:39:55.960Z,100887.50
2023-05-19T16:42:58.461Z,100889.75
2023-05-19T16:46:03.554Z,100886.16
2023-05-19T16:49:06.655Z,100894.50
2023-05-19T16:52:09.025Z,100895.59
2023-05-19T16:55:11.570Z,100897.25
2023-05-19T16:58:14.053Z,100888.06
2023-05-19T17:01:17.489Z,100890.13
2023-05-19T17:04:19.910Z,100888.75
2023-05-19T17:07:22.324Z,100889.75
2023-05-19T17:10:24.680Z,100880.84
2023-05-19T17:13:28.819Z,100870.16
2023-05-19T17:16:31.277Z,100877.13
2023-05-19T17:19:33.808Z,100876.22
2023-05-19T17:22:36.653Z,100884.03
2023-05-19T17:25:39.066Z,100882.19
2023-05-19T17:28:41.458Z,100876.22
2023-05-19T17:31:44.123Z,100873.63
2023-05-19T17:34:46.499Z,100873.53
2023-05-19T17:37:48.857Z,100854.00
2023-05-19T17:40:51.260Z,100870.56
2023-05-19T17:43:53.676Z,100865.41
2023-05-19T17:46:56.277Z,100862.56
2023-05-19T17:49:58.802Z,100867.47
2023-05-19T17:53:01.678Z,100867.50
2023-05-19T17:56:06.638Z,100868.19
2023-05-19T17:59:09.320Z,100868.19
2023-05-19T18:02:12.220Z,100866.88
2023-05-19T18:05:15.458Z,100871.66
2023-05-19T18:08:18.270Z,100864.34
2023-05-19T18:11:21.435Z,100876.44
2023-05-19T18:14:23.881Z,100880.03
2023-05-19T18:17:26.333Z,100881.38
2023-05-19T18:20:30.924Z,100873.59
2023-05-19T18:23:33.521Z,100887.41
2023-05-19T18:26:37.888Z,100883.38
2023-05-19T18:29:40.311Z,100892.75
2023-05-19T18:32:42.775Z,100889.16
2023-05-19T18:35:46.150Z,100896.72
2023-05-19T18:38:48.530Z,100897.16
2023-05-19T18:41:51.026Z,100894.47
2023-05-19T18:44:53.434Z,100901.47
2023-05-19T18:47:56.345Z,100899.94
2023-05-19T18:50:59.356Z,100901.94
2023-05-19T18:54:01.904Z,100911.22
2023-05-19T18:57:04.819Z,100905.59
2023-05-19T19:00:07.964Z,100914.31
2023-05-19T19:03:11.872Z,100917.09
2023-05-19T19:06:14.313Z,100916.50
2023-05-19T19:09:16.729Z,100920.75
2023-05-19T19:12:20.406Z,100909.38
2023-05-19T19:15:23.105Z,100910.97
2023-05-19T19:18:26.637Z,100897.47
2023-05-19T19:21:29.941Z,100910.44
2023-05-19T19:24:32.281Z,100910.44
2023-05-19T19:27:35.752Z,100910.44
2023-05-19T19:30:38.153Z,100915.91
2023-05-19T19:33:43.364Z,100912.28
2023-05-19T19:36:47.893Z,100916.25
2023-05-19T19:39:50.418Z,100915.69
2023-05-19T19:42:52.920Z,100911.66
2023-05-19T19:46:01.874Z,100896.31
2023-05-19T19:49:04.370Z,100907.66
2023-05-19T19:52:06.763Z,100900.22
2023-05-19T19:55:09.809Z,100903.75
2023-05-19T19:58:12.682Z,100898.63
2023-05-19T20:01:16.019Z,100899.75
2023-05-19T20:04:18.674Z,100899.97
2023-05-19T20:07:23.379Z,100907.78
2023-05-19T20:10:25.822Z,100907.47
2023-05-19T20:13:28.591Z,100908.41
2023-05-19T20:16:32.035Z,100909.38
2023-05-19T20:19:34.544Z,100897.03
2023-05-19T20:22:37.132Z,100914.41
2023-05-19T20:25:57.916Z,100903.13
2023-05-19T20:29:05.317Z,100905.75
2023-05-19T20:32:07.773Z,100897.75
2023-05-19T20:35:10.290Z,100894.94
2023-05-19T20:38:12.680Z,100900.38
2023-05-19T20:41:15.248Z,100901.28
2023-05-19T20:44:17.703Z,100896.91
2023-05-19T20:47:21.076Z,100906.41
2023-05-19T20:50:23.519Z,100907.28
2023-05-19T20:53:25.897Z,100901.03
2023-05-19T20:56:28.288Z,100895.03
2023-05-19T20:59:30.801Z,100894.97
2023-05-19T21:02:33.243Z,100893.00
2023-05-19T21:05:36.037Z,100896.50
2023-05-19T21:08:38.429Z,100888.88
2023-05-19T21:11:41.116Z,100881.03
2023-05-19T21:14:43.485Z,100879.06
2023-05-19T21:17:46.734Z,100876.53
2023-05-19T21:20:49.214Z,100887.59
2023-05-19T21:23:51.922Z,100890.84
2023-05-19T21:26:54.327Z,100883.31
2023-05-19T21:29:56.782Z,100890.47
2023-05-19T21:32:59.454Z,100896.19
2023-05-19T21:36:01.958Z,100890.84
2023-05-19T21:39:04.658Z,100891.72
2023-05-19T21:42:07.117Z,100890.53
2023-05-19T21:45:09.984Z,100892.88
2023-05-19T21:48:12.418Z,100889.34
2023-05-19T21:51:14.874Z,100889.97
2023-05-19T21:54:17.309Z,100894.63
2023-05-19T21:57:19.722Z,100887.81
2023-05-19T22:00:22.795Z,100896.44
2023-05-19T22:03:25.438Z,100895.22
2023-05-19T22:06:27.905Z,100887.81
2023-05-19T22:09:30.362Z,100884.59
2023-05-19T22:12:33.241Z,100869.72
2023-05-19T22:15:35.639Z,100876.34
2023-05-19T22:18:38.187Z,100876.13
2023-05-19T22:21:41.098Z,100876.59
2023-05-19T22:24:43.557Z,100886.69
2023-05-19T22:27:46.066Z,100879.81
2023-05-19T22:30:48.456Z,100879.97
2023-05-19T22:33:50.920Z,100877.19
2023-05-19T22:36:53.364Z,100879.38
2023-05-19T22:39:55.761Z,100869.09
2023-05-19T22:42:58.145Z,100878.97
2023-05-19T22:46:00.711Z,100873.16
2023-05-19T22:49:03.264Z,100877.94
2023-05-19T22:52:06.134Z,100886.84
2023-05-19T22:55:08.953Z,100880.19
2023-05-19T22:58:11.356Z,100882.41
2023-05-19T23:01:13.838Z,100869.94
2023-05-19T23:04:16.327Z,100873.16
2023-05-19T23:07:18.694Z,100865.69
2023-05-19T23:10:21.149Z,100867.13
2023-05-19T23:13:23.523Z,100858.53
2023-05-19T23:16:26.113Z,100858.53
2023-05-19T23:19:29.219Z,100862.19
2023-05-19T23:22:31.728Z,100850.59
2023-05-19T23:25:34.332Z,100854.00
2023-05-19T23:28:36.898Z,100860.63
2023-05-19T23:31:40.940Z,100846.34
2023-05-19T23:34:43.392Z,100848.78
2023-05-19T23:37:45.794Z,100839.38
2023-05-19T23:40:48.166Z,100838.97
2023-05-19T23:43:50.564Z,100841.97
2023-05-19T23:46:53.054Z,100839.97
2023-05-19T23:49:55.482Z,100839.59
2023-05-19T23:52:57.882Z,100840.16
2023-05-19T23:56:00.273Z,100842.19
2023-05-19T23:59:02.653Z,100840.16
